Time;durP1;ratioP1;P1;durP2;ratioP2;P2;SDS_P1;SDS_P2;PMS_P1;PMS_P2;Temp;Humidity;BMP_temperature;BMP_pressure;BME280_temperature;BME280_humidity;BME280_pressure;Samples;Min_cycle;Max_cycle;Signal;HPM_P1;HPM_P2
2023/04/13 00:00:12;;;;;;;4.35;1.10;;;7.80;99.90;;;;;;5020262;28;20018;-51
2023/04/13 00:02:38;;;;;;;0.70;0.70;;;7.70;99.90;;;;;;5019805;28;20555;-44
2023/04/13 00:05:09;;;;;;;1.92;0.75;;;7.70;99.90;;;;;;5003127;28;20026;-46
2023/04/13 00:07:37;;;;;;;2.92;1.15;;;7.70;99.90;;;;;;5019747;28;20040;-49
2023/04/13 00:10:05;;;;;;;1.67;0.70;;;7.70;99.90;;;;;;5018861;28;20025;-48
2023/04/13 00:12:32;;;;;;;1.35;0.80;;;7.60;99.90;;;;;;5020051;28;20026;-48
2023/04/13 00:14:57;;;;;;;2.30;0.80;;;7.60;99.90;;;;;;5002632;28;20533;-52
2023/04/13 00:17:25;;;;;;;6.00;0.73;;;8.00;99.90;;;;;;5002483;28;20078;-51
2023/04/13 00:19:52;;;;;;;0.90;0.68;;;7.60;99.90;;;;;;5019670;28;20033;-49
2023/04/13 00:22:18;;;;;;;0.98;0.80;;;7.60;99.90;;;;;;5001970;28;20022;-51
2023/04/13 00:24:54;;;;;;;;;;;7.60;99.90;;;;;;5158524;27;20389;-50
2023/04/13 00:27:20;;;;;;;3.00;0.63;;;7.50;99.90;;;;;;5157957;27;19977;-55
2023/04/13 00:29:46;;;;;;;0.73;0.70;;;7.50;99.90;;;;;;5139387;27;20030;-49
2023/04/13 00:32:11;;;;;;;1.08;0.70;;;7.50;99.90;;;;;;5123950;28;20027;-54
2023/04/13 00:34:37;;;;;;;3.38;1.05;;;7.50;99.90;;;;;;5137185;28;20027;-54
2023/04/13 00:37:05;;;;;;;1.98;0.77;;;7.50;99.90;;;;;;5118906;28;20075;-51
2023/04/13 00:39:31;;;;;;;2.33;1.00;;;7.50;99.90;;;;;;5137190;27;20023;-50
2023/04/13 00:42:01;;;;;;;2.03;0.70;;;7.50;99.90;;;;;;5136511;27;20038;-53
2023/04/13 00:44:27;;;;;;;2.20;0.60;;;7.50;99.90;;;;;;5137335;27;20330;-48
2023/04/13 00:46:53;;;;;;;3.10;0.95;;;7.50;99.90;;;;;;5136221;27;20020;-49
2023/04/13 00:49:21;;;;;;;2.10;0.80;;;7.60;99.90;;;;;;5118230;28;20027;-51
2023/04/13 00:51:47;;;;;;;1.83;0.50;;;7.50;99.90;;;;;;5136606;27;20019;-50
2023/04/13 00:54:14;;;;;;;0.70;0.70;;;7.50;99.90;;;;;;5136847;28;20036;-55
2023/04/13 00:56:41;;;;;;;1.10;1.00;;;7.40;99.90;;;;;;5136494;28;20027;-52
2023/04/13 00:59:11;;;;;;;0.93;0.68;;;7.40;99.90;;;;;;5136188;28;20416;-54
2023/04/13 01:01:49;;;;;;;0.85;0.70;;;7.40;99.90;;;;;;5137115;27;20028;-54
2023/04/13 01:04:18;;;;;;;0.80;0.80;;;7.50;99.90;;;;;;5136274;27;20019;-54
2023/04/13 01:07:05;;;;;;;2.72;0.88;;;7.50;99.90;;;;;;5135807;28;20030;-50
2023/04/13 01:09:40;;;;;;;1.63;0.88;;;7.50;99.90;;;;;;5135640;27;20482;-49
2023/04/13 01:12:29;;;;;;;2.55;0.80;;;7.50;99.90;;;;;;5134335;27;20122;-53
2023/04/13 01:15:03;;;;;;;1.35;0.80;;;7.50;99.90;;;;;;5135288;28;20042;-53
2023/04/13 01:17:31;;;;;;;1.38;0.95;;;7.50;99.90;;;;;;5135821;28;20123;-52
2023/04/13 01:20:11;;;;;;;2.17;1.10;;;7.40;99.90;;;;;;5134461;28;20015;-48
2023/04/13 01:22:40;;;;;;;3.53;0.80;;;7.30;99.90;;;;;;5134662;27;20129;-55
2023/04/13 01:25:29;;;;;;;6.53;1.20;;;7.30;99.90;;;;;;5135668;28;20068;-53
2023/04/13 01:27:58;;;;;;;1.40;0.93;;;7.30;99.90;;;;;;5136493;28;20523;-51
2023/04/13 01:30:27;;;;;;;2.55;0.75;;;7.30;99.90;;;;;;5135821;27;20023;-51
2023/04/13 01:32:53;;;;;;;4.75;1.05;;;7.30;99.90;;;;;;5135208;28;20019;-54
2023/04/13 01:35:22;;;;;;;1.75;0.80;;;7.30;99.90;;;;;;5126374;28;20050;-49
2023/04/13 01:37:51;;;;;;;2.97;0.88;;;7.40;99.90;;;;;;5122400;28;20119;-46
2023/04/13 01:40:19;;;;;;;5.10;1.17;;;7.40;99.90;;;;;;5121191;28;20028;-50
2023/04/13 01:42:45;;;;;;;0.70;0.70;;;7.50;99.90;;;;;;5120928;28;20042;-51
2023/04/13 01:45:13;;;;;;;6.93;0.90;;;7.50;99.90;;;;;;5120961;28;20016;-51
2023/04/13 01:47:45;;;;;;;4.50;1.20;;;7.70;99.90;;;;;;5102561;28;20053;-50
2023/04/13 01:50:18;;;;;;;6.65;1.45;;;7.40;99.90;;;;;;5121758;28;20016;-49
2023/04/13 01:52:44;;;;;;;5.97;0.90;;;7.40;99.90;;;;;;5120371;28;20027;-48
2023/04/13 01:55:11;;;;;;;4.20;1.02;;;7.30;99.90;;;;;;5120794;28;20022;-48
2023/04/13 01:57:39;;;;;;;4.63;0.70;;;7.40;99.90;;;;;;5102470;28;20064;-53
2023/04/13 02:00:11;;;;;;;3.03;0.90;;;7.40;99.90;;;;;;5120541;28;20019;-49
2023/04/13 02:02:37;;;;;;;7.75;1.63;;;7.40;99.90;;;;;;5120416;28;20027;-52
2023/04/13 02:05:02;;;;;;;2.25;0.90;;;7.40;99.90;;;;;;5102271;28;20063;-48
2023/04/13 02:07:28;;;;;;;10.35;2.10;;;7.40;99.90;;;;;;5119766;28;20131;-52
2023/04/13 02:09:53;;;;;;;3.03;0.70;;;7.40;99.90;;;;;;5121581;28;20497;-47
2023/04/13 02:12:19;;;;;;;3.75;1.02;;;7.40;99.90;;;;;;5120929;28;20030;-54
2023/04/13 02:14:45;;;;;;;1.92;0.77;;;7.40;99.90;;;;;;5120927;28;20020;-51
2023/04/13 02:17:11;;;;;;;3.22;0.70;;;7.40;99.90;;;;;;5120733;28;20103;-52
2023/04/13 02:19:36;;;;;;;3.97;2.05;;;7.40;99.90;;;;;;5120404;28;20090;-48
2023/04/13 02:22:02;;;;;;;2.92;1.23;;;7.40;99.90;;;;;;5101790;28;20027;-52
2023/04/13 02:24:29;;;;;;;5.43;1.00;;;7.40;99.90;;;;;;5101998;28;20035;-53
2023/04/13 02:26:55;;;;;;;1.27;0.85;;;7.40;99.90;;;;;;5120650;28;20069;-50
2023/04/13 02:29:21;;;;;;;1.02;0.70;;;7.30;99.90;;;;;;5120718;28;20141;-48
2023/04/13 02:31:47;;;;;;;5.75;1.08;;;7.30;99.90;;;;;;5102025;28;20020;-49
2023/04/13 02:34:13;;;;;;;3.10;1.10;;;7.40;99.90;;;;;;5120679;28;20024;-52
2023/04/13 02:36:39;;;;;;;2.38;0.85;;;7.40;99.90;;;;;;5120963;28;20502;-50
2023/04/13 02:39:05;;;;;;;2.25;1.20;;;7.40;99.90;;;;;;5102184;28;20062;-49
2023/04/13 02:41:30;;;;;;;3.33;1.13;;;7.50;99.90;;;;;;5120886;28;20027;-49
2023/04/13 02:43:56;;;;;;;4.28;1.20;;;7.50;99.90;;;;;;5119939;28;20024;-50
2023/04/13 02:46:22;;;;;;;4.82;1.08;;;7.60;99.90;;;;;;5119130;28;20032;-48
2023/04/13 02:48:47;;;;;;;1.13;0.80;;;7.60;99.90;;;;;;5102917;28;20106;-48
2023/04/13 02:51:13;;;;;;;4.43;1.27;;;7.60;99.90;;;;;;5121674;28;20028;-51
2023/04/13 02:53:39;;;;;;;3.38;1.38;;;7.60;99.90;;;;;;5120559;28;20119;-57
2023/04/13 02:56:05;;;;;;;5.72;1.08;;;7.60;99.90;;;;;;5121120;28;20020;-51
2023/04/13 02:58:31;;;;;;;1.42;0.93;;;7.70;99.90;;;;;;5121384;28;20076;-53
2023/04/13 03:00:57;;;;;;;4.95;1.48;;;7.70;99.90;;;;;;5121196;28;20372;-49
2023/04/13 03:03:23;;;;;;;4.47;0.95;;;7.80;99.90;;;;;;5121008;28;20104;-50
2023/04/13 03:05:49;;;;;;;4.47;0.90;;;7.80;99.90;;;;;;5102724;28;20015;-50
2023/04/13 03:08:16;;;;;;;3.88;1.30;;;7.80;99.90;;;;;;5120321;28;20019;-54
2023/04/13 03:10:43;;;;;;;6.13;1.08;;;7.90;99.90;;;;;;5120362;28;20083;-54
2023/04/13 03:13:09;;;;;;;4.03;0.95;;;7.80;99.90;;;;;;5121322;28;20028;-48
2023/04/13 03:15:35;;;;;;;5.82;0.93;;;7.80;99.90;;;;;;5104454;28;20372;-50
2023/04/13 03:18:02;;;;;;;7.10;1.27;;;7.90;99.90;;;;;;5122262;28;20099;-50
2023/04/13 03:20:28;;;;;;;2.58;0.70;;;7.90;99.90;;;;;;5103141;28;20028;-49
2023/04/13 03:22:55;;;;;;;5.03;1.10;;;8.00;99.90;;;;;;5121744;28;20126;-50
2023/04/13 03:25:20;;;;;;;3.13;1.10;;;8.10;99.90;;;;;;5120356;28;20107;-50
2023/04/13 03:27:46;;;;;;;1.70;0.80;;;8.10;99.90;;;;;;5101360;28;20069;-53
2023/04/13 03:30:12;;;;;;;2.88;1.00;;;8.10;99.90;;;;;;5100120;28;20039;-51
2023/04/13 03:32:37;;;;;;;4.05;1.00;;;8.10;99.90;;;;;;5118912;28;20027;-49
2023/04/13 03:35:04;;;;;;;2.15;1.15;;;8.10;99.90;;;;;;5119314;28;20024;-49
2023/04/13 03:37:31;;;;;;;7.50;2.30;;;8.20;99.90;;;;;;5118742;28;20441;-51
2023/04/13 03:39:59;;;;;;;3.00;0.70;;;8.20;99.90;;;;;;5118837;28;20019;-52
2023/04/13 03:42:25;;;;;;;5.30;0.90;;;8.20;99.90;;;;;;5118142;28;20015;-53
2023/04/13 03:44:51;;;;;;;4.53;1.30;;;8.20;99.90;;;;;;5119348;28;20398;-53
2023/04/13 03:47:16;;;;;;;3.05;1.10;;;8.80;99.90;;;;;;5118948;28;20019;-54
2023/04/13 03:49:42;;;;;;;2.40;1.55;;;8.20;99.90;;;;;;5100332;28;20609;-52
2023/04/13 03:52:07;;;;;;;8.45;1.20;;;8.10;99.90;;;;;;5118902;28;20149;-48
2023/04/13 03:54:33;;;;;;;4.53;1.40;;;8.20;99.90;;;;;;5119252;28;20045;-50
2023/04/13 03:57:01;;;;;;;5.35;1.02;;;8.20;99.90;;;;;;5119030;28;20030;-53
2023/04/13 03:59:26;;;;;;;6.40;1.00;;;8.20;99.90;;;;;;5118044;28;20047;-47
2023/04/13 04:01:52;;;;;;;6.35;1.20;;;8.20;99.90;;;;;;5118173;28;20402;-50
2023/04/13 04:04:18;;;;;;;6.55;1.00;;;8.20;99.90;;;;;;5117783;28;20480;-51
2023/04/13 04:06:44;;;;;;;4.57;1.20;;;8.20;99.90;;;;;;5118395;28;20053;-54
2023/04/13 04:09:11;;;;;;;6.75;1.40;;;8.20;99.90;;;;;;5118516;28;20031;-54
2023/04/13 04:11:36;;;;;;;2.22;0.68;;;8.30;99.90;;;;;;5117828;28;20094;-47
2023/04/13 04:14:02;;;;;;;7.38;1.10;;;8.30;99.90;;;;;;5118355;28;20486;-52
2023/04/13 04:16:28;;;;;;;2.13;1.25;;;8.30;99.90;;;;;;5099995;28;20031;-54
2023/04/13 04:18:54;;;;;;;5.65;1.17;;;8.30;99.90;;;;;;5100226;28;20118;-51
2023/04/13 04:21:20;;;;;;;2.78;1.40;;;8.30;99.90;;;;;;5117973;28;20450;-49
2023/04/13 04:23:46;;;;;;;5.25;0.88;;;8.30;99.90;;;;;;5118273;28;20062;-51
2023/04/13 04:26:13;;;;;;;5.45;0.98;;;8.30;99.90;;;;;;5116188;28;20066;-49
2023/04/13 04:28:38;;;;;;;2.17;0.93;;;8.30;99.90;;;;;;5117401;28;20030;-56
2023/04/13 04:31:09;;;;;;;5.13;1.13;;;8.30;99.90;;;;;;5117974;28;20075;-53
2023/04/13 04:33:37;;;;;;;4.45;1.63;;;8.30;99.90;;;;;;5099589;28;20543;-53
2023/04/13 04:36:05;;;;;;;3.92;1.05;;;8.30;99.90;;;;;;5118249;28;20036;-52
2023/04/13 04:38:31;;;;;;;6.55;1.85;;;8.20;99.90;;;;;;5118062;28;20485;-53
2023/04/13 04:40:56;;;;;;;10.55;1.85;;;8.20;99.90;;;;;;5117671;28;20055;-57
2023/04/13 04:43:24;;;;;;;3.63;1.10;;;8.20;99.90;;;;;;5117008;28;20042;-52
2023/04/13 04:45:50;;;;;;;5.43;1.20;;;8.30;99.90;;;;;;5099892;28;20102;-50
2023/04/13 04:48:16;;;;;;;6.00;1.38;;;8.20;99.90;;;;;;5117326;28;20498;-51
2023/04/13 04:50:43;;;;;;;9.38;2.60;;;8.20;99.90;;;;;;5117041;28;20024;-51
2023/04/13 04:53:09;;;;;;;5.05;1.77;;;8.20;99.90;;;;;;5117169;28;20030;-49
2023/04/13 04:55:35;;;;;;;6.20;1.88;;;8.20;99.90;;;;;;5117514;28;20483;-53
2023/04/13 04:58:00;;;;;;;4.30;1.85;;;8.20;99.90;;;;;;5117510;28;20039;-50
2023/04/13 05:00:29;;;;;;;5.80;1.60;;;8.20;99.90;;;;;;5118258;28;20034;-48
2023/04/13 05:02:56;;;;;;;3.17;1.15;;;8.30;99.90;;;;;;5117254;28;20107;-53
2023/04/13 05:05:22;;;;;;;5.97;1.30;;;8.30;99.90;;;;;;5117619;28;20016;-52
2023/04/13 05:07:48;;;;;;;8.07;1.60;;;8.30;99.90;;;;;;5116886;28;20047;-49
2023/04/13 05:10:14;;;;;;;4.60;1.35;;;8.30;99.90;;;;;;5118979;28;20471;-50
2023/04/13 05:12:39;;;;;;;7.03;2.08;;;8.20;99.90;;;;;;5121508;28;20041;-51
2023/04/13 05:15:06;;;;;;;10.23;1.85;;;8.30;99.90;;;;;;5121246;28;20028;-54
2023/04/13 05:17:31;;;;;;;3.63;1.25;;;8.30;99.90;;;;;;5121901;28;20398;-48
2023/04/13 05:19:57;;;;;;;6.57;1.83;;;8.20;99.90;;;;;;5122479;28;20019;-51
2023/04/13 05:22:22;;;;;;;7.82;1.52;;;8.30;99.90;;;;;;5121754;28;20031;-49
2023/04/13 05:24:48;;;;;;;6.85;2.17;;;8.30;99.90;;;;;;5103375;28;20028;-53
2023/04/13 05:27:14;;;;;;;9.23;1.85;;;8.30;99.90;;;;;;5122008;28;20032;-51
2023/04/13 05:29:40;;;;;;;5.65;1.35;;;8.30;99.90;;;;;;5104236;28;20061;-51
2023/04/13 05:32:06;;;;;;;9.00;1.80;;;8.30;99.90;;;;;;5121517;28;20395;-49
2023/04/13 05:34:32;;;;;;;7.72;1.75;;;8.30;99.90;;;;;;5120782;28;20058;-48
2023/04/13 05:36:58;;;;;;;7.93;1.88;;;8.30;99.90;;;;;;5120980;28;20084;-48
2023/04/13 05:39:24;;;;;;;5.78;1.90;;;8.40;99.90;;;;;;5121009;28;20095;-47
2023/04/13 05:41:50;;;;;;;5.70;2.58;;;8.40;99.90;;;;;;5120606;28;20039;-48
2023/04/13 05:44:16;;;;;;;5.22;1.55;;;8.40;99.90;;;;;;5120462;28;20020;-50
2023/04/13 05:46:41;;;;;;;6.30;1.55;;;8.40;99.90;;;;;;5122282;28;20523;-52
2023/04/13 05:49:07;;;;;;;2.17;1.08;;;8.40;99.90;;;;;;5122453;28;20020;-49
2023/04/13 05:51:33;;;;;;;8.55;1.48;;;8.50;99.90;;;;;;5122109;28;20027;-51
2023/04/13 05:53:59;;;;;;;7.85;1.33;;;8.50;99.90;;;;;;5121288;28;20102;-49
2023/04/13 05:56:25;;;;;;;13.02;3.25;;;8.50;99.90;;;;;;5122279;28;20055;-49
2023/04/13 05:58:52;;;;;;;11.80;2.05;;;8.50;99.90;;;;;;5121603;28;20059;-48
2023/04/13 06:01:18;;;;;;;7.68;2.50;;;8.50;99.90;;;;;;5122195;28;20574;-50
2023/04/13 06:03:45;;;;;;;7.95;1.60;;;8.50;99.90;;;;;;5103479;28;20027;-52
2023/04/13 06:06:11;;;;;;;7.00;2.50;;;8.50;99.90;;;;;;5121697;28;20036;-53
2023/04/13 06:08:37;;;;;;;8.25;2.45;;;8.50;99.90;;;;;;5103391;28;20084;-52
2023/04/13 06:11:05;;;;;;;13.45;1.90;;;8.50;99.90;;;;;;5121936;28;20031;-50
2023/04/13 06:13:30;;;;;;;6.78;1.25;;;8.50;99.90;;;;;;5121582;28;20028;-52
2023/04/13 06:15:56;;;;;;;7.50;2.78;;;8.40;99.90;;;;;;5122193;28;20088;-48
2023/04/13 06:18:25;;;;;;;11.93;1.88;;;8.50;99.90;;;;;;5121916;28;20461;-57
2023/04/13 06:20:50;;;;;;;6.07;1.73;;;8.50;99.90;;;;;;5120742;28;20019;-50
2023/04/13 06:23:16;;;;;;;5.65;1.88;;;9.20;99.90;;;;;;5120477;28;20024;-48
2023/04/13 06:25:42;;;;;;;6.85;1.85;;;8.60;99.90;;;;;;5120785;28;20506;-48
2023/04/13 06:28:07;;;;;;;8.23;1.40;;;8.70;99.90;;;;;;5121329;28;20024;-49
2023/04/13 06:30:33;;;;;;;8.55;2.35;;;8.70;99.90;;;;;;5120282;28;20016;-49
2023/04/13 06:32:58;;;;;;;11.00;2.20;;;8.70;99.90;;;;;;5102155;28;20020;-54
2023/04/13 06:35:24;;;;;;;11.07;2.50;;;8.80;99.90;;;;;;5120880;28;20080;-51
2023/04/13 06:37:50;;;;;;;9.65;1.73;;;8.90;99.90;;;;;;5120848;28;20027;-50
2023/04/13 06:40:16;;;;;;;11.23;3.22;;;8.90;99.90;;;;;;5119997;28;20016;-48
2023/04/13 06:42:42;;;;;;;9.27;1.95;;;9.00;99.90;;;;;;5119721;28;20031;-49
2023/04/13 06:45:09;;;;;;;8.73;2.25;;;8.90;99.90;;;;;;5121112;28;20020;-53
2023/04/13 06:47:36;;;;;;;8.70;1.92;;;8.80;99.90;;;;;;5120572;28;20020;-49
2023/04/13 06:50:05;;;;;;;4.95;1.48;;;9.40;99.90;;;;;;5120735;28;20028;-53
2023/04/13 06:52:32;;;;;;;8.82;2.00;;;8.80;99.90;;;;;;5119883;28;20047;-48
2023/04/13 06:54:58;;;;;;;5.40;1.63;;;8.80;99.90;;;;;;5120413;28;20038;-49
2023/04/13 06:57:23;;;;;;;13.73;3.33;;;8.90;99.90;;;;;;5120555;28;20032;-49
2023/04/13 06:59:49;;;;;;;13.57;2.85;;;8.80;99.90;;;;;;5121234;28;20372;-48
2023/04/13 07:02:14;;;;;;;8.23;2.08;;;8.80;99.90;;;;;;5121208;28;20023;-50
2023/04/13 07:04:40;;;;;;;9.30;2.92;;;8.90;99.90;;;;;;5102768;28;20027;-52
2023/04/13 07:07:05;;;;;;;11.73;2.00;;;8.80;99.90;;;;;;5102341;28;20030;-50
2023/04/13 07:09:31;;;;;;;8.93;2.20;;;8.80;99.90;;;;;;5119543;28;20019;-47
2023/04/13 07:12:04;;;;;;;12.57;1.90;;;8.80;99.90;;;;;;5119710;28;20569;-52
2023/04/13 07:14:34;;;;;;;7.10;1.90;;;8.90;99.90;;;;;;5120158;28;20024;-49
2023/04/13 07:17:01;;;;;;;17.10;2.60;;;8.90;99.90;;;;;;5120264;28;20024;-49
2023/04/13 07:19:28;;;;;;;9.38;1.98;;;9.00;99.90;;;;;;5119625;28;20020;-50
2023/04/13 07:21:53;;;;;;;7.80;2.03;;;9.00;99.90;;;;;;5101449;28;20024;-51
2023/04/13 07:24:19;;;;;;;10.07;1.77;;;9.00;99.90;;;;;;5119389;28;20035;-49
2023/04/13 07:26:45;;;;;;;8.52;3.13;;;9.00;99.90;;;;;;5120104;28;20022;-50
2023/04/13 07:29:12;;;;;;;8.18;1.73;;;9.00;99.90;;;;;;5119298;28;20383;-50
2023/04/13 07:31:38;;;;;;;12.30;1.88;;;8.90;99.90;;;;;;5118349;28;20035;-50
2023/04/13 07:34:04;;;;;;;7.47;1.83;;;8.90;99.90;;;;;;5117711;28;20076;-50
2023/04/13 07:36:30;;;;;;;5.38;1.73;;;8.90;99.90;;;;;;5118508;28;20034;-51
2023/04/13 07:38:56;;;;;;;6.22;1.77;;;8.90;99.90;;;;;;5117315;28;20020;-49
2023/04/13 07:41:23;;;;;;;10.18;2.40;;;8.90;99.90;;;;;;5117720;28;20045;-52
2023/04/13 07:43:49;;;;;;;9.38;2.00;;;8.80;99.90;;;;;;5118319;28;20038;-50
2023/04/13 07:46:15;;;;;;;9.15;2.30;;;8.90;99.90;;;;;;5118471;28;20020;-51
2023/04/13 07:48:41;;;;;;;9.43;2.53;;;8.90;99.90;;;;;;5118248;28;20474;-48
2023/04/13 07:51:16;;;;;;;12.75;1.95;;;9.90;99.90;;;;;;5118145;28;20027;-48
2023/04/13 07:53:41;;;;;;;6.18;1.60;;;9.00;99.90;;;;;;5117876;28;20054;-48
2023/04/13 07:56:07;;;;;;;11.20;2.28;;;6.90;99.90;;;;;;5117742;28;20143;-50
2023/04/13 07:58:32;;;;;;;5.40;1.50;;;9.00;99.90;;;;;;5117961;28;20019;-49
2023/04/13 08:00:58;;;;;;;6.72;1.77;;;9.20;99.90;;;;;;5099228;28;20453;-52
2023/04/13 08:03:24;;;;;;;4.13;1.50;;;9.20;99.90;;;;;;5117806;28;20042;-52
2023/04/13 08:05:50;;;;;;;5.50;2.05;;;9.20;99.90;;;;;;5118337;28;20030;-50
2023/04/13 08:08:16;;;;;;;3.95;2.28;;;9.30;99.90;;;;;;5119606;28;20471;-49
2023/04/13 08:10:41;;;;;;;3.55;1.60;;;9.50;99.90;;;;;;5120538;28;20051;-47
2023/04/13 08:13:07;;;;;;;5.70;1.33;;;9.80;99.90;;;;;;5117908;28;20030;-51
2023/04/13 08:15:33;;;;;;;9.18;2.63;;;9.90;99.90;;;;;;5099056;28;20024;-54
2023/04/13 08:17:58;;;;;;;4.57;1.40;;;9.90;99.90;;;;;;5117991;28;20028;-47
2023/04/13 08:20:24;;;;;;;5.95;1.55;;;9.90;99.90;;;;;;5117683;28;20035;-48
2023/04/13 08:22:49;;;;;;;5.65;2.05;;;9.80;99.90;;;;;;5117495;28;20028;-49
2023/04/13 08:25:16;;;;;;;3.47;1.75;;;9.70;99.90;;;;;;5117405;28;20079;-52
2023/04/13 08:27:42;;;;;;;7.07;1.65;;;9.50;99.90;;;;;;5117371;28;20019;-50
2023/04/13 08:30:10;;;;;;;8.02;1.90;;;9.50;99.90;;;;;;5099108;28;20026;-52
2023/04/13 08:32:36;;;;;;;6.25;1.65;;;9.50;99.90;;;;;;5118264;28;20044;-48
2023/04/13 08:35:06;;;;;;;7.28;1.48;;;9.40;99.90;;;;;;5118014;28;20035;-52
2023/04/13 08:37:32;;;;;;;7.20;1.98;;;9.30;99.90;;;;;;5118379;28;20030;-54
2023/04/13 08:39:59;;;;;;;5.22;1.83;;;9.30;99.90;;;;;;5099141;28;20020;-49
2023/04/13 08:42:26;;;;;;;14.48;2.35;;;9.30;99.90;;;;;;5117495;28;20497;-48
2023/04/13 08:45:00;;;;;;;3.67;1.63;;;9.30;99.90;;;;;;5118624;28;20099;-53
2023/04/13 08:47:27;;;;;;;6.75;1.65;;;9.40;99.90;;;;;;5121133;28;20019;-51
2023/04/13 08:49:57;;;;;;;3.75;1.80;;;9.50;99.90;;;;;;5104024;28;20024;-50
2023/04/13 08:52:23;;;;;;;6.22;1.80;;;9.60;99.90;;;;;;5103012;28;20028;-50
2023/04/13 08:54:50;;;;;;;2.83;1.60;;;9.70;99.90;;;;;;5119694;28;20028;-48
2023/04/13 08:57:16;;;;;;;3.42;1.50;;;9.80;99.90;;;;;;5120808;28;20020;-48
2023/04/13 08:59:43;;;;;;;6.22;1.55;;;9.70;99.90;;;;;;5118513;28;20110;-49
2023/04/13 09:02:10;;;;;;;6.47;2.15;;;9.70;99.90;;;;;;5115425;28;20039;-53
2023/04/13 09:04:37;;;;;;;9.02;2.10;;;9.70;99.90;;;;;;5119560;28;20036;-53
2023/04/13 09:07:03;;;;;;;8.82;2.40;;;9.60;99.90;;;;;;5121197;28;20099;-50
2023/04/13 09:09:31;;;;;;;3.88;1.75;;;9.60;99.90;;;;;;5118928;28;20019;-52
2023/04/13 09:11:57;;;;;;;6.15;1.63;;;9.60;99.90;;;;;;5115271;28;20020;-52
2023/04/13 09:14:23;;;;;;;7.55;1.67;;;9.60;99.90;;;;;;5102709;28;20024;-51
2023/04/13 09:16:49;;;;;;;7.05;1.58;;;9.60;99.90;;;;;;5120585;28;20030;-53
2023/04/13 09:19:16;;;;;;;7.03;2.30;;;9.70;99.90;;;;;;5121616;28;20024;-50
2023/04/13 09:21:43;;;;;;;5.70;2.72;;;9.70;99.90;;;;;;5110583;28;20028;-50
2023/04/13 09:24:09;;;;;;;9.63;2.53;;;9.80;99.90;;;;;;5101442;28;20108;-51
2023/04/13 09:26:45;;;;;;;5.93;1.80;;;10.00;99.90;;;;;;5122113;28;20027;-49
2023/04/13 09:29:13;;;;;;;7.65;1.30;;;10.10;99.90;;;;;;5122795;28;20046;-48
2023/04/13 09:31:39;;;;;;;3.35;1.52;;;10.10;99.90;;;;;;5122711;28;20061;-52
2023/04/13 09:34:07;;;;;;;6.32;1.65;;;10.20;99.90;;;;;;5108920;28;20493;-53
2023/04/13 09:36:33;;;;;;;7.93;1.55;;;10.20;99.90;;;;;;5102500;28;20027;-52
2023/04/13 09:38:58;;;;;;;7.88;2.15;;;10.30;99.90;;;;;;5101917;28;20115;-50
2023/04/13 09:41:34;;;;;;;7.65;2.72;;;10.40;99.90;;;;;;5101857;28;20059;-50
2023/04/13 09:44:23;;;;;;;5.43;1.38;;;10.50;99.90;;;;;;5100698;28;20028;-50
2023/04/13 09:47:00;;;;;;;3.97;1.23;;;10.60;99.90;;;;;;5111281;28;20020;-50
2023/04/13 09:49:39;;;;;;;4.85;1.38;;;10.70;99.90;;;;;;5120894;28;20035;-49
2023/04/13 09:52:25;;;;;;;3.22;1.23;;;10.70;99.90;;;;;;5115089;28;20019;-56
2023/04/13 09:54:56;;;;;;;0.82;0.70;;;10.80;99.90;;;;;;5114718;28;20040;-48
2023/04/13 09:57:28;;;;;;;4.72;0.90;;;10.80;99.90;;;;;;5114329;28;20020;-49
2023/04/13 09:59:55;;;;;;;50.20;27.55;;;11.00;99.90;;;;;;5114855;28;20020;-47
2023/04/13 10:02:21;;;;;;;25.70;12.45;;;11.10;99.90;;;;;;5114582;28;20024;-51
2023/04/13 10:04:46;;;;;;;2.58;1.80;;;11.30;99.90;;;;;;5114820;28;20036;-46
2023/04/13 10:07:12;;;;;;;2.92;1.05;;;11.30;99.90;;;;;;5114842;28;20111;-45
2023/04/13 10:09:38;;;;;;;3.22;1.00;;;11.20;99.90;;;;;;5113810;28;20020;-48
2023/04/13 10:12:05;;;;;;;4.57;1.45;;;11.30;99.90;;;;;;5095198;28;20077;-50
2023/04/13 10:14:34;;;;;;;3.88;1.20;;;11.30;99.90;;;;;;5114374;28;20402;-51
2023/04/13 10:17:11;;;;;;;4.68;1.27;;;11.30;99.90;;;;;;5114362;28;20028;-49
2023/04/13 10:19:44;;;;;;;3.85;0.93;;;11.20;99.90;;;;;;5114623;28;20020;-48
2023/04/13 10:22:11;;;;;;;1.17;1.08;;;11.10;99.90;;;;;;5114580;28;20399;-48
2023/04/13 10:24:39;;;;;;;2.90;1.00;;;;;;;;;;5114339;28;20031;-49
2023/04/13 10:27:15;;;;;;;4.38;1.00;;;11.00;99.90;;;;;;5112011;28;20402;-49
2023/04/13 10:29:41;;;;;;;2.33;1.25;;;10.90;99.90;;;;;;5089946;28;20024;-48
2023/04/13 10:32:07;;;;;;;1.20;0.90;;;11.00;99.90;;;;;;5113835;28;20098;-48
2023/04/13 10:34:35;;;;;;;3.30;1.00;;;11.00;99.90;;;;;;5113567;28;20012;-55
2023/04/13 10:37:05;;;;;;;3.10;1.13;;;11.10;99.90;;;;;;5113348;28;20059;-54
2023/04/13 10:39:33;;;;;;;2.80;1.60;;;11.30;99.90;;;;;;5114424;28;20518;-47
2023/04/13 10:42:00;;;;;;;3.72;1.27;;;11.50;99.90;;;;;;5113735;28;20028;-46
2023/04/13 10:44:26;;;;;;;3.25;1.38;;;11.60;99.90;;;;;;5114618;28;20032;-45
2023/04/13 10:46:52;;;;;;;8.18;1.30;;;11.80;99.90;;;;;;5114967;28;20030;-46
2023/04/13 10:49:29;;;;;;;1.55;1.10;;;11.90;99.90;;;;;;5114502;28;20255;-48
2023/04/13 10:51:55;;;;;;;1.90;1.23;;;12.20;99.90;;;;;;5104137;28;20024;-47
2023/04/13 10:54:22;;;;;;;2.30;1.38;;;12.30;99.90;;;;;;5114067;28;20027;-49
2023/04/13 10:57:02;;;;;;;2.05;1.00;;;12.20;99.90;;;;;;5114019;28;20039;-45
2023/04/13 10:59:55;;;;;;;2.33;0.80;;;12.20;99.90;;;;;;5111082;28;20024;-47
2023/04/13 11:02:24;;;;;;;2.42;0.90;;;12.40;99.90;;;;;;5093984;28;20024;-46
2023/04/13 11:04:50;;;;;;;2.88;1.20;;;12.40;99.90;;;;;;5093286;28;20024;-48
2023/04/13 11:07:18;;;;;;;1.98;0.85;;;12.50;99.90;;;;;;5095004;28;20471;-48
2023/04/13 11:09:49;;;;;;;2.60;1.00;;;12.50;99.90;;;;;;5093530;28;20035;-50
2023/04/13 11:12:16;;;;;;;3.47;1.00;;;12.70;99.90;;;;;;5075357;28;20017;-54
2023/04/13 11:14:49;;;;;;;0.93;0.75;;;12.70;99.90;;;;;;5107180;28;20514;-57
2023/04/13 11:17:19;;;;;;;4.53;1.40;;;12.60;99.90;;;;;;5113632;28;20034;-50
2023/04/13 11:19:46;;;;;;;4.80;1.30;;;12.50;99.90;;;;;;5113258;28;20027;-51
2023/04/13 11:22:16;;;;;;;2.47;1.30;;;12.40;99.90;;;;;;5109399;28;20027;-54
2023/04/13 11:24:42;;;;;;;1.65;0.80;;;12.40;99.90;;;;;;5108229;28;20045;-47
2023/04/13 11:27:15;;;;;;;2.45;1.25;;;12.20;99.90;;;;;;5112388;28;20049;-45
2023/04/13 11:29:41;;;;;;;2.78;1.77;;;12.30;99.90;;;;;;5108193;28;20104;-45
2023/04/13 11:32:17;;;;;;;18.45;11.15;;;12.30;99.90;;;;;;5092153;28;20538;-46
2023/04/13 11:34:43;;;;;;;3.10;1.40;;;12.30;99.90;;;;;;5092953;28;20028;-44
2023/04/13 11:37:10;;;;;;;3.15;0.90;;;12.30;99.90;;;;;;5092663;28;20028;-44
2023/04/13 11:39:37;;;;;;;4.90;1.48;;;12.20;99.90;;;;;;5094497;28;20027;-45
2023/04/13 11:42:05;;;;;;;4.53;1.92;;;12.10;99.90;;;;;;5123623;22;20082;-50
2023/04/13 11:44:33;;;;;;;4.78;1.00;;;12.10;99.90;;;;;;5091552;28;20062;-48
2023/04/13 11:47:00;;;;;;;3.20;1.10;;;12.20;99.90;;;;;;5091867;28;20050;-54
2023/04/13 11:49:26;;;;;;;2.88;1.30;;;12.30;99.90;;;;;;5091082;28;20024;-49
2023/04/13 11:51:52;;;;;;;3.17;1.10;;;12.50;99.90;;;;;;5100353;28;20099;-49
2023/04/13 11:54:18;;;;;;;7.93;2.22;;;12.50;99.90;;;;;;5094126;28;20028;-49
2023/04/13 11:56:44;;;;;;;5.97;1.63;;;12.40;99.90;;;;;;5112200;28;20062;-47
2023/04/13 11:59:11;;;;;;;4.82;1.40;;;12.40;99.90;;;;;;5112224;28;20579;-52
2023/04/13 12:01:37;;;;;;;3.08;1.25;;;12.60;99.90;;;;;;5111932;28;20043;-54
2023/04/13 12:04:03;;;;;;;5.68;1.70;;;12.60;99.90;;;;;;5111895;28;20072;-54
2023/04/13 12:06:33;;;;;;;7.32;1.65;;;12.70;99.90;;;;;;5112179;28;20023;-51
2023/04/13 12:09:02;;;;;;;4.60;1.38;;;12.70;99.90;;;;;;5111896;28;20400;-50
2023/04/13 12:11:41;;;;;;;2.17;1.00;;;12.70;99.90;;;;;;5093551;28;20028;-49
2023/04/13 12:14:07;;;;;;;6.25;1.20;;;12.60;99.90;;;;;;5113034;28;20035;-53
2023/04/13 12:16:33;;;;;;;3.65;1.40;;;12.40;99.90;;;;;;5113057;28;20019;-50
2023/04/13 12:19:06;;;;;;;4.25;1.08;;;12.50;99.90;;;;;;5111692;28;20030;-54
2023/04/13 12:21:33;;;;;;;4.55;1.50;;;12.60;99.90;;;;;;5111845;28;20491;-53
2023/04/13 12:24:00;;;;;;;2.22;1.05;;;12.80;99.90;;;;;;5093314;28;20028;-52
2023/04/13 12:26:36;;;;;;;4.25;1.85;;;13.00;99.90;;;;;;5111933;28;20095;-51
2023/04/13 12:29:04;;;;;;;3.70;1.38;;;13.60;99.90;;;;;;5111737;28;20035;-48
2023/04/13 12:31:37;;;;;;;3.60;1.33;;;13.30;99.90;;;;;;5093338;28;20391;-51
2023/04/13 12:34:06;;;;;;;2.88;1.20;;;13.40;99.90;;;;;;5111579;28;20360;-51
2023/04/13 12:36:35;;;;;;;4.10;1.58;;;13.30;99.90;;;;;;5093405;28;20031;-50
2023/04/13 12:39:01;;;;;;;6.38;1.73;;;13.40;99.90;;;;;;5111662;28;20030;-50
2023/04/13 12:41:27;;;;;;;7.32;1.48;;;13.50;99.90;;;;;;5111483;28;20023;-54
2023/04/13 12:43:52;;;;;;;4.05;1.40;;;13.40;99.90;;;;;;5111443;28;20104;-49
2023/04/13 12:46:19;;;;;;;9.65;1.63;;;13.30;99.90;;;;;;5111467;28;20020;-54
2023/04/13 12:48:44;;;;;;;11.85;1.70;;;13.30;99.90;;;;;;5111709;28;20379;-53
2023/04/13 12:51:12;;;;;;;3.80;1.08;;;13.30;99.90;;;;;;5111694;28;20024;-50
2023/04/13 12:53:38;;;;;;;16.02;7.68;;;13.50;99.90;;;;;;5111442;28;20495;-50